sensor_id;sensor_type;location;lat;lon;timestamp;temperature;humidity
31575;DHT22;18182;1.328;103.810;2022-09-09T00:03:42;29.60;99.90
31575;DHT22;18182;1.328;103.810;2022-09-09T00:09:08;29.60;99.90
31575;DHT22;18182;1.328;103.810;2022-09-09T00:11:41;29.50;99.90
31575;DHT22;18182;1.328;103.810;2022-09-09T00:14:12;29.50;99.90
31575;DHT22;18182;1.328;103.810;2022-09-09T00:16:39;29.50;99.90
31575;DHT22;18182;1.328;103.810;2022-09-09T00:19:12;29.50;99.90
31575;DHT22;18182;1.328;103.810;2022-09-09T00:21:49;29.50;99.90
31575;DHT22;18182;1.328;103.810;2022-09-09T00:24:38;29.50;99.90
31575;DHT22;18182;1.328;103.810;2022-09-09T00:27:11;29.50;99.90
31575;DHT22;18182;1.328;103.810;2022-09-09T00:30:14;29.50;99.90
31575;DHT22;18182;1.328;103.810;2022-09-09T00:32:32;29.50;99.90
31575;DHT22;18182;1.328;103.810;2022-09-09T00:37:36;29.60;99.90
31575;DHT22;18182;1.328;103.810;2022-09-09T00:40:08;29.70;99.90
31575;DHT22;18182;1.328;103.810;2022-09-09T00:42:42;29.70;99.90
31575;DHT22;18182;1.328;103.810;2022-09-09T00:48:01;29.70;99.90
31575;DHT22;18182;1.328;103.810;2022-09-09T00:50:39;29.70;99.90
31575;DHT22;18182;1.328;103.810;2022-09-09T00:53:20;29.80;99.90
31575;DHT22;18182;1.328;103.810;2022-09-09T00:58:25;29.90;99.90
31575;DHT22;18182;1.328;103.810;2022-09-09T01:03:38;30.00;99.90
31575;DHT22;18182;1.328;103.810;2022-09-09T01:06:20;30.00;99.90
31575;DHT22;18182;1.328;103.810;2022-09-09T01:14:11;30.00;99.90
31575;DHT22;18182;1.328;103.810;2022-09-09T01:16:39;30.00;99.90
31575;DHT22;18182;1.328;103.810;2022-09-09T01:19:07;30.00;99.90
31575;DHT22;18182;1.328;103.810;2022-09-09T01:21:39;30.20;99.90
31575;DHT22;18182;1.328;103.810;2022-09-09T01:27:08;30.20;99.90
31575;DHT22;18182;1.328;103.810;2022-09-09T01:29:35;30.20;99.90
31575;DHT22;18182;1.328;103.810;2022-09-09T01:34:46;30.30;99.90
31575;DHT22;18182;1.328;103.810;2022-09-09T01:37:12;30.30;99.90
31575;DHT22;18182;1.328;103.810;2022-09-09T01:39:39;30.30;99.90
31575;DHT22;18182;1.328;103.810;2022-09-09T01:42:08;30.40;99.90
31575;DHT22;18182;1.328;103.810;2022-09-09T01:44:35;30.50;99.90
31575;DHT22;18182;1.328;103.810;2022-09-09T01:47:02;30.50;99.90
31575;DHT22;18182;1.328;103.810;2022-09-09T01:49:28;30.40;99.90
31575;DHT22;18182;1.328;103.810;2022-09-09T01:51:55;30.40;99.90
31575;DHT22;18182;1.328;103.810;2022-09-09T01:54:22;30.30;99.90
31575;DHT22;18182;1.328;103.810;2022-09-09T01:57:06;30.20;99.90
31575;DHT22;18182;1.328;103.810;2022-09-09T02:02:26;30.10;99.90
31575;DHT22;18182;1.328;103.810;2022-09-09T02:05:04;30.00;99.90
31575;DHT22;18182;1.328;103.810;2022-09-09T02:07:38;30.00;99.90
31575;DHT22;18182;1.328;103.810;2022-09-09T02:10:16;30.00;99.90
31575;DHT22;18182;1.328;103.810;2022-09-09T02:12:47;29.90;99.90
31575;DHT22;18182;1.328;103.810;2022-09-09T02:15:17;29.90;99.90
31575;DHT22;18182;1.328;103.810;2022-09-09T02:17:43;29.90;99.90
31575;DHT22;18182;1.328;103.810;2022-09-09T02:20:12;29.90;99.90
31575;DHT22;18182;1.328;103.810;2022-09-09T02:22:41;29.90;99.90
31575;DHT22;18182;1.328;103.810;2022-09-09T02:25:10;29.80;99.90
31575;DHT22;18182;1.328;103.810;2022-09-09T02:27:38;29.80;99.90
31575;DHT22;18182;1.328;103.810;2022-09-09T02:30:06;29.70;99.90
31575;DHT22;18182;1.328;103.810;2022-09-09T02:32:33;29.60;99.90
31575;DHT22;18182;1.328;103.810;2022-09-09T02:35:07;29.50;99.90
31575;DHT22;18182;1.328;103.810;2022-09-09T02:37:38;29.50;99.90
31575;DHT22;18182;1.328;103.810;2022-09-09T02:40:05;29.40;99.90
31575;DHT22;18182;1.328;103.810;2022-09-09T02:42:32;29.30;99.90
31575;DHT22;18182;1.328;103.810;2022-09-09T02:45:04;29.30;99.90
31575;DHT22;18182;1.328;103.810;2022-09-09T02:50:05;29.50;99.90
31575;DHT22;18182;1.328;103.810;2022-09-09T02:55:41;29.60;99.90
31575;DHT22;18182;1.328;103.810;2022-09-09T02:57:58;29.60;99.90
31575;DHT22;18182;1.328;103.810;2022-09-09T03:00:26;29.70;99.90
31575;DHT22;18182;1.328;103.810;2022-09-09T03:02:52;29.70;99.90
31575;DHT22;18182;1.328;103.810;2022-09-09T03:05:20;29.70;99.90
31575;DHT22;18182;1.328;103.810;2022-09-09T03:07:46;29.70;99.90
31575;DHT22;18182;1.328;103.810;2022-09-09T03:10:12;29.70;99.90
31575;DHT22;18182;1.328;103.810;2022-09-09T03:12:38;29.70;99.90
31575;DHT22;18182;1.328;103.810;2022-09-09T03:15:05;29.70;99.90
31575;DHT22;18182;1.328;103.810;2022-09-09T03:17:32;29.70;99.90
31575;DHT22;18182;1.328;103.810;2022-09-09T03:19:58;29.70;99.90
31575;DHT22;18182;1.328;103.810;2022-09-09T03:22:24;29.70;99.90
31575;DHT22;18182;1.328;103.810;2022-09-09T03:24:51;29.70;99.90
31575;DHT22;18182;1.328;103.810;2022-09-09T03:27:17;29.70;99.90
31575;DHT22;18182;1.328;103.810;2022-09-09T03:29:45;29.80;99.90
31575;DHT22;18182;1.328;103.810;2022-09-09T03:32:12;29.80;99.90
31575;DHT22;18182;1.328;103.810;2022-09-09T03:34:38;29.80;99.90
31575;DHT22;18182;1.328;103.810;2022-09-09T03:37:07;29.80;99.90
31575;DHT22;18182;1.328;103.810;2022-09-09T03:39:33;29.90;99.90
31575;DHT22;18182;1.328;103.810;2022-09-09T03:42:00;29.90;99.90
31575;DHT22;18182;1.328;103.810;2022-09-09T03:44:29;29.90;99.90
31575;DHT22;18182;1.328;103.810;2022-09-09T03:46:56;30.00;99.90
31575;DHT22;18182;1.328;103.810;2022-09-09T03:49:22;30.00;99.90
31575;DHT22;18182;1.328;103.810;2022-09-09T03:51:49;30.00;99.90
31575;DHT22;18182;1.328;103.810;2022-09-09T03:54:15;30.00;99.90
31575;DHT22;18182;1.328;103.810;2022-09-09T03:56:41;30.00;99.90
31575;DHT22;18182;1.328;103.810;2022-09-09T03:59:07;29.90;99.90
31575;DHT22;18182;1.328;103.810;2022-09-09T04:01:36;29.90;99.90
31575;DHT22;18182;1.328;103.810;2022-09-09T04:04:02;29.80;99.90
31575;DHT22;18182;1.328;103.810;2022-09-09T04:06:29;29.80;99.90
31575;DHT22;18182;1.328;103.810;2022-09-09T04:08:55;29.80;99.90
31575;DHT22;18182;1.328;103.810;2022-09-09T04:11:21;29.80;99.90
31575;DHT22;18182;1.328;103.810;2022-09-09T04:13:48;29.90;99.90
31575;DHT22;18182;1.328;103.810;2022-09-09T04:16:14;29.90;99.90
31575;DHT22;18182;1.328;103.810;2022-09-09T04:18:41;29.90;99.90
31575;DHT22;18182;1.328;103.810;2022-09-09T04:21:08;29.90;99.90
31575;DHT22;18182;1.328;103.810;2022-09-09T04:23:34;29.80;99.90
31575;DHT22;18182;1.328;103.810;2022-09-09T04:26:02;29.80;99.90
31575;DHT22;18182;1.328;103.810;2022-09-09T04:28:29;29.80;99.90
31575;DHT22;18182;1.328;103.810;2022-09-09T04:30:56;29.70;99.90
31575;DHT22;18182;1.328;103.810;2022-09-09T04:33:25;29.70;99.90
31575;DHT22;18182;1.328;103.810;2022-09-09T04:35:52;29.70;99.90
31575;DHT22;18182;1.328;103.810;2022-09-09T04:38:20;29.60;99.90
31575;DHT22;18182;1.328;103.810;2022-09-09T04:40:48;29.60;99.90
31575;DHT22;18182;1.328;103.810;2022-09-09T04:43:15;29.60;99.90
31575;DHT22;18182;1.328;103.810;2022-09-09T04:45:42;29.50;99.90
31575;DHT22;18182;1.328;103.810;2022-09-09T04:48:08;29.60;99.90
31575;DHT22;18182;1.328;103.810;2022-09-09T04:50:35;29.60;99.90
31575;DHT22;18182;1.328;103.810;2022-09-09T04:53:01;29.50;99.90
31575;DHT22;18182;1.328;103.810;2022-09-09T04:55:29;29.40;99.90
31575;DHT22;18182;1.328;103.810;2022-09-09T04:57:55;29.40;99.90
31575;DHT22;18182;1.328;103.810;2022-09-09T05:00:23;29.20;99.90
31575;DHT22;18182;1.328;103.810;2022-09-09T05:02:49;29.00;99.90
31575;DHT22;18182;1.328;103.810;2022-09-09T05:05:16;29.00;99.90
31575;DHT22;18182;1.328;103.810;2022-09-09T05:07:44;28.90;99.90
31575;DHT22;18182;1.328;103.810;2022-09-09T05:10:10;29.00;99.90
31575;DHT22;18182;1.328;103.810;2022-09-09T05:12:38;29.10;99.90
31575;DHT22;18182;1.328;103.810;2022-09-09T05:15:05;29.10;99.90
31575;DHT22;18182;1.328;103.810;2022-09-09T05:17:31;29.10;99.90
31575;DHT22;18182;1.328;103.810;2022-09-09T05:19:58;29.10;99.90
31575;DHT22;18182;1.328;103.810;2022-09-09T05:22:24;29.20;99.90
31575;DHT22;18182;1.328;103.810;2022-09-09T05:24:50;29.30;99.90
31575;DHT22;18182;1.328;103.810;2022-09-09T05:27:17;29.40;99.90
31575;DHT22;18182;1.328;103.810;2022-09-09T05:29:45;29.50;99.90
31575;DHT22;18182;1.328;103.810;2022-09-09T05:32:11;29.50;99.90
31575;DHT22;18182;1.328;103.810;2022-09-09T05:34:39;29.50;99.90
31575;DHT22;18182;1.328;103.810;2022-09-09T05:37:05;29.40;99.90
31575;DHT22;18182;1.328;103.810;2022-09-09T05:39:33;29.40;99.90
31575;DHT22;18182;1.328;103.810;2022-09-09T05:42:01;29.40;99.90
31575;DHT22;18182;1.328;103.810;2022-09-09T05:44:29;29.40;99.90
31575;DHT22;18182;1.328;103.810;2022-09-09T05:46:55;29.50;99.90
31575;DHT22;18182;1.328;103.810;2022-09-09T05:49:23;29.40;99.90
31575;DHT22;18182;1.328;103.810;2022-09-09T05:51:49;29.50;99.90
31575;DHT22;18182;1.328;103.810;2022-09-09T05:54:16;29.50;99.90
31575;DHT22;18182;1.328;103.810;2022-09-09T05:56:42;29.50;99.90
31575;DHT22;18182;1.328;103.810;2022-09-09T05:59:09;29.60;99.90
31575;DHT22;18182;1.328;103.810;2022-09-09T06:01:35;29.60;99.90
31575;DHT22;18182;1.328;103.810;2022-09-09T06:04:05;29.60;99.90
31575;DHT22;18182;1.328;103.810;2022-09-09T06:06:36;29.60;99.90
31575;DHT22;18182;1.328;103.810;2022-09-09T06:09:02;29.60;99.90
31575;DHT22;18182;1.328;103.810;2022-09-09T06:11:32;29.60;99.90
31575;DHT22;18182;1.328;103.810;2022-09-09T06:13:59;29.50;99.90
31575;DHT22;18182;1.328;103.810;2022-09-09T06:16:26;29.50;99.90
31575;DHT22;18182;1.328;103.810;2022-09-09T06:18:56;29.50;99.90
31575;DHT22;18182;1.328;103.810;2022-09-09T06:21:24;29.50;99.90
31575;DHT22;18182;1.328;103.810;2022-09-09T06:23:50;29.50;99.90
31575;DHT22;18182;1.328;103.810;2022-09-09T06:26:20;29.50;99.90
31575;DHT22;18182;1.328;103.810;2022-09-09T06:28:48;29.50;99.90
31575;DHT22;18182;1.328;103.810;2022-09-09T06:31:16;29.70;99.90
31575;DHT22;18182;1.328;103.810;2022-09-09T06:33:52;29.80;99.90
31575;DHT22;18182;1.328;103.810;2022-09-09T06:36:21;29.70;99.90
31575;DHT22;18182;1.328;103.810;2022-09-09T06:38:50;29.60;99.90
31575;DHT22;18182;1.328;103.810;2022-09-09T06:41:17;29.50;99.90
31575;DHT22;18182;1.328;103.810;2022-09-09T06:43:44;29.60;99.90
31575;DHT22;18182;1.328;103.810;2022-09-09T06:46:11;29.50;99.90
31575;DHT22;18182;1.328;103.810;2022-09-09T06:48:38;29.50;99.90
31575;DHT22;18182;1.328;103.810;2022-09-09T06:53:34;29.60;99.90
31575;DHT22;18182;1.328;103.810;2022-09-09T06:56:01;29.70;99.90
31575;DHT22;18182;1.328;103.810;2022-09-09T06:58:27;29.70;99.90
31575;DHT22;18182;1.328;103.810;2022-09-09T07:01:03;29.80;99.90
31575;DHT22;18182;1.328;103.810;2022-09-09T07:03:30;29.80;99.90
31575;DHT22;18182;1.328;103.810;2022-09-09T07:05:56;29.70;99.90
31575;DHT22;18182;1.328;103.810;2022-09-09T07:08:23;29.70;99.90
31575;DHT22;18182;1.328;103.810;2022-09-09T07:10:50;29.70;99.90
31575;DHT22;18182;1.328;103.810;2022-09-09T07:13:28;29.70;99.90
31575;DHT22;18182;1.328;103.810;2022-09-09T07:15:54;29.70;99.90
31575;DHT22;18182;1.328;103.810;2022-09-09T07:18:20;29.60;99.90
31575;DHT22;18182;1.328;103.810;2022-09-09T07:20:53;29.40;99.90
31575;DHT22;18182;1.328;103.810;2022-09-09T07:23:20;29.40;99.90
31575;DHT22;18182;1.328;103.810;2022-09-09T07:25:46;29.30;99.90
31575;DHT22;18182;1.328;103.810;2022-09-09T07:28:13;29.10;99.90
31575;DHT22;18182;1.328;103.810;2022-09-09T07:30:43;29.00;99.90
31575;DHT22;18182;1.328;103.810;2022-09-09T07:33:09;28.80;99.90
31575;DHT22;18182;1.328;103.810;2022-09-09T07:35:36;28.70;99.90
31575;DHT22;18182;1.328;103.810;2022-09-09T07:38:02;28.90;99.90
31575;DHT22;18182;1.328;103.810;2022-09-09T07:40:32;28.90;99.90
31575;DHT22;18182;1.328;103.810;2022-09-09T07:42:59;29.00;99.90
31575;DHT22;18182;1.328;103.810;2022-09-09T07:45:26;28.90;99.90
31575;DHT22;18182;1.328;103.810;2022-09-09T07:47:54;28.90;99.90
31575;DHT22;18182;1.328;103.810;2022-09-09T07:50:22;29.10;99.90
31575;DHT22;18182;1.328;103.810;2022-09-09T07:52:52;29.10;99.90
31575;DHT22;18182;1.328;103.810;2022-09-09T07:55:19;29.10;99.90
31575;DHT22;18182;1.328;103.810;2022-09-09T07:57:46;29.00;99.90
31575;DHT22;18182;1.328;103.810;2022-09-09T08:00:12;29.10;99.90
31575;DHT22;18182;1.328;103.810;2022-09-09T08:02:40;29.20;99.90
31575;DHT22;18182;1.328;103.810;2022-09-09T08:05:06;29.20;99.90
31575;DHT22;18182;1.328;103.810;2022-09-09T08:07:32;29.10;99.90
31575;DHT22;18182;1.328;103.810;2022-09-09T08:09:58;29.00;99.90
31575;DHT22;18182;1.328;103.810;2022-09-09T08:12:25;28.90;99.90
31575;DHT22;18182;1.328;103.810;2022-09-09T08:14:51;28.80;99.90
31575;DHT22;18182;1.328;103.810;2022-09-09T08:17:17;28.70;99.90
31575;DHT22;18182;1.328;103.810;2022-09-09T08:19:43;28.70;99.90
31575;DHT22;18182;1.328;103.810;2022-09-09T08:22:10;28.60;99.90
31575;DHT22;18182;1.328;103.810;2022-09-09T08:24:36;28.70;99.90
31575;DHT22;18182;1.328;103.810;2022-09-09T08:27:02;28.70;99.90
31575;DHT22;18182;1.328;103.810;2022-09-09T08:29:28;28.80;99.90
31575;DHT22;18182;1.328;103.810;2022-09-09T08:31:55;28.70;99.90
31575;DHT22;18182;1.328;103.810;2022-09-09T08:34:23;28.70;99.90
31575;DHT22;18182;1.328;103.810;2022-09-09T08:36:50;28.60;99.90
31575;DHT22;18182;1.328;103.810;2022-09-09T08:39:17;28.60;99.90
31575;DHT22;18182;1.328;103.810;2022-09-09T08:52:20;28.60;99.90
31575;DHT22;18182;1.328;103.810;2022-09-09T08:54:48;28.60;99.90
31575;DHT22;18182;1.328;103.810;2022-09-09T08:57:21;28.70;99.90
31575;DHT22;18182;1.328;103.810;2022-09-09T08:59:52;28.70;99.90
31575;DHT22;18182;1.328;103.810;2022-09-09T09:07:25;29.00;99.90
31575;DHT22;18182;1.328;103.810;2022-09-09T09:12:25;29.10;99.90
31575;DHT22;18182;1.328;103.810;2022-09-09T09:14:52;29.10;99.90
31575;DHT22;18182;1.328;103.810;2022-09-09T09:17:21;29.10;99.90
31575;DHT22;18182;1.328;103.810;2022-09-09T09:19:49;29.10;99.90
31575;DHT22;18182;1.328;103.810;2022-09-09T09:22:20;29.20;99.90
31575;DHT22;18182;1.328;103.810;2022-09-09T09:29:52;29.20;99.90
31575;DHT22;18182;1.328;103.810;2022-09-09T09:32:22;29.30;99.90
31575;DHT22;18182;1.328;103.810;2022-09-09T09:34:52;29.20;99.90
31575;DHT22;18182;1.328;103.810;2022-09-09T09:37:31;29.20;99.90
31575;DHT22;18182;1.328;103.810;2022-09-09T09:40:10;29.20;99.90
31575;DHT22;18182;1.328;103.810;2022-09-09T09:42:37;29.20;99.90
31575;DHT22;18182;1.328;103.810;2022-09-09T09:47:59;29.20;99.90
31575;DHT22;18182;1.328;103.810;2022-09-09T09:50:25;29.10;99.90
31575;DHT22;18182;1.328;103.810;2022-09-09T09:52:59;29.10;99.90
31575;DHT22;18182;1.328;103.810;2022-09-09T09:55:26;29.10;99.90
31575;DHT22;18182;1.328;103.810;2022-09-09T09:58:00;29.10;99.90
31575;DHT22;18182;1.328;103.810;2022-09-09T10:00:26;29.10;99.90
31575;DHT22;18182;1.328;103.810;2022-09-09T10:02:52;29.00;99.90
31575;DHT22;18182;1.328;103.810;2022-09-09T10:10:39;29.00;99.90
31575;DHT22;18182;1.328;103.810;2022-09-09T10:18:12;28.90;99.90
31575;DHT22;18182;1.328;103.810;2022-09-09T10:26:00;28.80;99.90
31575;DHT22;18182;1.328;103.810;2022-09-09T10:31:18;28.90;99.90
31575;DHT22;18182;1.328;103.810;2022-09-09T10:41:32;29.10;99.90
31575;DHT22;18182;1.328;103.810;2022-09-09T10:54:34;28.70;99.90
31575;DHT22;18182;1.328;103.810;2022-09-09T10:57:08;28.70;99.90
31575;DHT22;18182;1.328;103.810;2022-09-09T10:59:38;28.60;99.90
31575;DHT22;18182;1.328;103.810;2022-09-09T11:07:05;28.50;99.90
31575;DHT22;18182;1.328;103.810;2022-09-09T11:09:35;28.50;99.90
31575;DHT22;18182;1.328;103.810;2022-09-09T11:12:03;28.60;99.90
31575;DHT22;18182;1.328;103.810;2022-09-09T11:17:01;28.70;99.90
31575;DHT22;18182;1.328;103.810;2022-09-09T11:19:30;28.70;99.90
31575;DHT22;18182;1.328;103.810;2022-09-09T11:22:04;28.70;99.90
31575;DHT22;18182;1.328;103.810;2022-09-09T11:24:35;28.60;99.90
31575;DHT22;18182;1.328;103.810;2022-09-09T11:27:11;28.70;99.90
31575;DHT22;18182;1.328;103.810;2022-09-09T11:40:27;29.20;99.90
31575;DHT22;18182;1.328;103.810;2022-09-09T11:43:04;29.20;99.90
31575;DHT22;18182;1.328;103.810;2022-09-09T11:45:31;29.20;99.90
31575;DHT22;18182;1.328;103.810;2022-09-09T11:48:00;29.20;99.90
31575;DHT22;18182;1.328;103.810;2022-09-09T11:50:31;29.30;99.90
31575;DHT22;18182;1.328;103.810;2022-09-09T11:53:05;29.20;99.90
31575;DHT22;18182;1.328;103.810;2022-09-09T11:55:33;29.20;99.90
31575;DHT22;18182;1.328;103.810;2022-09-09T11:58:18;29.20;99.90
31575;DHT22;18182;1.328;103.810;2022-09-09T12:00:46;29.10;99.90
31575;DHT22;18182;1.328;103.810;2022-09-09T12:08:49;29.00;99.90
31575;DHT22;18182;1.328;103.810;2022-09-09T12:11:28;28.90;99.90
31575;DHT22;18182;1.328;103.810;2022-09-09T12:13:55;28.80;99.90
31575;DHT22;18182;1.328;103.810;2022-09-09T12:16:34;28.70;99.90
31575;DHT22;18182;1.328;103.810;2022-09-09T12:21:34;28.70;99.90
31575;DHT22;18182;1.328;103.810;2022-09-09T12:24:09;28.70;99.90
31575;DHT22;18182;1.328;103.810;2022-09-09T12:26:59;28.60;99.90
31575;DHT22;18182;1.328;103.810;2022-09-09T12:29:34;28.60;99.90
31575;DHT22;18182;1.328;103.810;2022-09-09T12:32:06;28.50;99.90
31575;DHT22;18182;1.328;103.810;2022-09-09T12:34:48;28.30;99.90
31575;DHT22;18182;1.328;103.810;2022-09-09T12:37:34;28.20;99.90
31575;DHT22;18182;1.328;103.810;2022-09-09T12:40:03;28.10;99.90
31575;DHT22;18182;1.328;103.810;2022-09-09T12:42:29;28.00;99.90
31575;DHT22;18182;1.328;103.810;2022-09-09T12:45:02;28.00;99.90
31575;DHT22;18182;1.328;103.810;2022-09-09T12:47:32;28.00;99.90
31575;DHT22;18182;1.328;103.810;2022-09-09T12:50:01;28.10;99.90
31575;DHT22;18182;1.328;103.810;2022-09-09T12:52:29;28.10;99.90
31575;DHT22;18182;1.328;103.810;2022-09-09T12:54:56;28.20;99.90
31575;DHT22;18182;1.328;103.810;2022-09-09T12:57:23;28.40;99.90
31575;DHT22;18182;1.328;103.810;2022-09-09T13:00:03;28.50;99.90
31575;DHT22;18182;1.328;103.810;2022-09-09T13:02:30;28.60;99.90
31575;DHT22;18182;1.328;103.810;2022-09-09T13:05:05;28.60;99.90
31575;DHT22;18182;1.328;103.810;2022-09-09T13:07:31;28.80;99.90
31575;DHT22;18182;1.328;103.810;2022-09-09T13:09:57;28.80;99.90
31575;DHT22;18182;1.328;103.810;2022-09-09T13:12:24;28.90;99.90
31575;DHT22;18182;1.328;103.810;2022-09-09T13:14:51;28.90;99.90
31575;DHT22;18182;1.328;103.810;2022-09-09T13:17:27;28.90;99.90
31575;DHT22;18182;1.328;103.810;2022-09-09T13:19:56;28.80;99.90
31575;DHT22;18182;1.328;103.810;2022-09-09T13:22:35;28.60;99.90
31575;DHT22;18182;1.328;103.810;2022-09-09T13:25:13;28.50;99.90
31575;DHT22;18182;1.328;103.810;2022-09-09T13:27:51;28.50;99.90
31575;DHT22;18182;1.328;103.810;2022-09-09T13:30:19;28.60;99.90
31575;DHT22;18182;1.328;103.810;2022-09-09T13:32:59;28.70;99.90
31575;DHT22;18182;1.328;103.810;2022-09-09T13:35:26;28.90;99.90
31575;DHT22;18182;1.328;103.810;2022-09-09T13:37:52;28.90;99.90
31575;DHT22;18182;1.328;103.810;2022-09-09T13:40:20;29.00;99.90
31575;DHT22;18182;1.328;103.810;2022-09-09T13:42:47;29.00;99.90
31575;DHT22;18182;1.328;103.810;2022-09-09T13:45:20;29.10;99.90
31575;DHT22;18182;1.328;103.810;2022-09-09T13:47:46;29.10;99.90
31575;DHT22;18182;1.328;103.810;2022-09-09T13:50:25;29.10;99.90
31575;DHT22;18182;1.328;103.810;2022-09-09T13:52:52;29.10;99.90
31575;DHT22;18182;1.328;103.810;2022-09-09T13:55:19;29.00;99.90
31575;DHT22;18182;1.328;103.810;2022-09-09T13:57:50;29.10;99.90
31575;DHT22;18182;1.328;103.810;2022-09-09T14:00:17;29.00;99.90
31575;DHT22;18182;1.328;103.810;2022-09-09T14:02:44;28.90;99.90
31575;DHT22;18182;1.328;103.810;2022-09-09T14:05:10;28.80;99.90
31575;DHT22;18182;1.328;103.810;2022-09-09T14:07:38;28.80;99.90
31575;DHT22;18182;1.328;103.810;2022-09-09T14:10:04;28.80;99.90
31575;DHT22;18182;1.328;103.810;2022-09-09T14:12:31;28.80;99.90
31575;DHT22;18182;1.328;103.810;2022-09-09T14:14:57;28.80;99.90
31575;DHT22;18182;1.328;103.810;2022-09-09T14:17:25;28.80;99.90
31575;DHT22;18182;1.328;103.810;2022-09-09T14:19:57;28.90;99.90
31575;DHT22;18182;1.328;103.810;2022-09-09T14:22:23;29.00;99.90
31575;DHT22;18182;1.328;103.810;2022-09-09T14:24:49;29.00;99.90
31575;DHT22;18182;1.328;103.810;2022-09-09T14:27:16;29.10;99.90
31575;DHT22;18182;1.328;103.810;2022-09-09T14:29:44;29.00;99.90
31575;DHT22;18182;1.328;103.810;2022-09-09T14:32:10;28.90;99.90
31575;DHT22;18182;1.328;103.810;2022-09-09T14:34:36;28.90;99.90
31575;DHT22;18182;1.328;103.810;2022-09-09T14:37:03;28.90;99.90
31575;DHT22;18182;1.328;103.810;2022-09-09T14:39:30;28.80;99.90
31575;DHT22;18182;1.328;103.810;2022-09-09T14:41:56;28.70;99.90
31575;DHT22;18182;1.328;103.810;2022-09-09T14:44:22;28.80;99.90
31575;DHT22;18182;1.328;103.810;2022-09-09T14:46:48;28.70;99.90
31575;DHT22;18182;1.328;103.810;2022-09-09T14:49:17;28.70;99.90
31575;DHT22;18182;1.328;103.810;2022-09-09T14:51:43;28.60;99.90
31575;DHT22;18182;1.328;103.810;2022-09-09T14:54:09;28.60;99.90
31575;DHT22;18182;1.328;103.810;2022-09-09T14:56:36;28.60;99.90
31575;DHT22;18182;1.328;103.810;2022-09-09T14:59:03;28.60;99.90
31575;DHT22;18182;1.328;103.810;2022-09-09T15:01:30;28.60;99.90
31575;DHT22;18182;1.328;103.810;2022-09-09T15:04:02;28.50;99.90
31575;DHT22;18182;1.328;103.810;2022-09-09T15:06:29;28.60;99.90
31575;DHT22;18182;1.328;103.810;2022-09-09T15:08:56;28.60;99.90
31575;DHT22;18182;1.328;103.810;2022-09-09T15:11:27;28.50;99.90
31575;DHT22;18182;1.328;103.810;2022-09-09T15:13:53;28.50;99.90
31575;DHT22;18182;1.328;103.810;2022-09-09T15:16:20;28.50;99.90
31575;DHT22;18182;1.328;103.810;2022-09-09T15:18:50;28.50;99.90
31575;DHT22;18182;1.328;103.810;2022-09-09T15:21:17;28.40;99.90
31575;DHT22;18182;1.328;103.810;2022-09-09T15:23:44;28.40;99.90
31575;DHT22;18182;1.328;103.810;2022-09-09T15:26:11;28.40;99.90
31575;DHT22;18182;1.328;103.810;2022-09-09T15:28:39;28.40;99.90
31575;DHT22;18182;1.328;103.810;2022-09-09T15:31:07;28.40;99.90
31575;DHT22;18182;1.328;103.810;2022-09-09T15:33:35;28.40;99.90
31575;DHT22;18182;1.328;103.810;2022-09-09T15:36:14;28.30;99.90
31575;DHT22;18182;1.328;103.810;2022-09-09T15:38:40;28.30;99.90
31575;DHT22;18182;1.328;103.810;2022-09-09T15:41:06;28.30;99.90
31575;DHT22;18182;1.328;103.810;2022-09-09T15:43:32;28.30;99.90
31575;DHT22;18182;1.328;103.810;2022-09-09T15:46:00;28.30;99.90
31575;DHT22;18182;1.328;103.810;2022-09-09T15:48:31;28.30;99.90
31575;DHT22;18182;1.328;103.810;2022-09-09T15:51:01;28.30;99.90
31575;DHT22;18182;1.328;103.810;2022-09-09T15:53:29;28.40;99.90
31575;DHT22;18182;1.328;103.810;2022-09-09T15:55:55;28.30;99.90
31575;DHT22;18182;1.328;103.810;2022-09-09T15:58:21;28.30;99.90
31575;DHT22;18182;1.328;103.810;2022-09-09T16:00:48;28.30;99.90
31575;DHT22;18182;1.328;103.810;2022-09-09T16:03:14;28.30;99.90
31575;DHT22;18182;1.328;103.810;2022-09-09T16:05:40;28.40;99.90
31575;DHT22;18182;1.328;103.810;2022-09-09T16:08:07;28.40;99.90
31575;DHT22;18182;1.328;103.810;2022-09-09T16:10:33;28.40;99.90
31575;DHT22;18182;1.328;103.810;2022-09-09T16:12:59;28.40;99.90
31575;DHT22;18182;1.328;103.810;2022-09-09T16:15:25;28.40;99.90
31575;DHT22;18182;1.328;103.810;2022-09-09T16:17:53;28.30;99.90
31575;DHT22;18182;1.328;103.810;2022-09-09T16:20:19;28.30;99.90
31575;DHT22;18182;1.328;103.810;2022-09-09T16:22:45;28.30;99.90
31575;DHT22;18182;1.328;103.810;2022-09-09T16:25:12;28.40;99.90
31575;DHT22;18182;1.328;103.810;2022-09-09T16:27:38;28.40;99.90
31575;DHT22;18182;1.328;103.810;2022-09-09T16:30:04;28.40;99.90
31575;DHT22;18182;1.328;103.810;2022-09-09T16:32:30;28.30;99.90
31575;DHT22;18182;1.328;103.810;2022-09-09T16:34:56;28.30;99.90
31575;DHT22;18182;1.328;103.810;2022-09-09T16:37:23;28.30;99.90
31575;DHT22;18182;1.328;103.810;2022-09-09T16:39:49;28.30;99.90
31575;DHT22;18182;1.328;103.810;2022-09-09T16:42:15;28.40;99.90
31575;DHT22;18182;1.328;103.810;2022-09-09T16:44:42;28.40;99.90
31575;DHT22;18182;1.328;103.810;2022-09-09T16:47:08;28.40;99.90
31575;DHT22;18182;1.328;103.810;2022-09-09T16:49:34;28.40;99.90
31575;DHT22;18182;1.328;103.810;2022-09-09T16:52:01;28.40;99.90
31575;DHT22;18182;1.328;103.810;2022-09-09T16:54:27;28.50;99.90
31575;DHT22;18182;1.328;103.810;2022-09-09T16:56:54;28.40;99.90
31575;DHT22;18182;1.328;103.810;2022-09-09T16:59:20;28.40;99.90
31575;DHT22;18182;1.328;103.810;2022-09-09T17:01:48;28.40;99.90
31575;DHT22;18182;1.328;103.810;2022-09-09T17:04:16;28.40;99.90
31575;DHT22;18182;1.328;103.810;2022-09-09T17:06:46;28.40;99.90
31575;DHT22;18182;1.328;103.810;2022-09-09T17:09:13;28.50;99.90
31575;DHT22;18182;1.328;103.810;2022-09-09T17:11:39;28.50;99.90
31575;DHT22;18182;1.328;103.810;2022-09-09T17:14:06;28.50;99.90
31575;DHT22;18182;1.328;103.810;2022-09-09T17:16:35;28.50;99.90
31575;DHT22;18182;1.328;103.810;2022-09-09T17:19:01;28.40;99.90
31575;DHT22;18182;1.328;103.810;2022-09-09T17:21:29;28.50;99.90
31575;DHT22;18182;1.328;103.810;2022-09-09T17:23:56;28.40;99.90
31575;DHT22;18182;1.328;103.810;2022-09-09T17:26:23;28.50;99.90
31575;DHT22;18182;1.328;103.810;2022-09-09T17:28:49;28.50;99.90
31575;DHT22;18182;1.328;103.810;2022-09-09T17:31:16;28.40;99.90